OMAD/AZI METAR and TAF weather

Enter ICAO airport designator
Station Type Date Time Source
OMAD METAR 2019/06/19 07:00 UTC NOAA

OMAD 190700Z 29021KT CAVOK 39/17 Q0996 TEMPO 29021G31KT 4000 BLDU


Station Type Date Time Source
OMAD Decoded METAR 2019/06/19 07:00 UTC NOAA

Abu Dhabi Bateen Airport, United Arab Emirates (OMAD) 24-26N 054-28E 3M
Jun 19, 2019 - 03:00 AM EDT / 2019.06.19 0700 UTC
Wind: from the WNW (290 degrees) at 24 MPH (21 KT):0
Visibility: greater than 7 mile(s):0
Temperature: 102 F (39 C)
Heat index: 103.8 F (39.9 C):1
Dew Point: 62 F (17 C)
Relative Humidity: 27%
Pressure (altimeter): 29.41 in. Hg (0996 hPa)
ob: OMAD 190700Z 29021KT CAVOK 39/17 Q0996 TEMPO 29021G31KT 4000 BLDU
cycle: 7

Station Type Date Time Source
OMAD TAF 2019/06/19 06:03 UTC NOAA

TAF TAF OMAD 190500Z 1906/2012 30017KT 8000 NSC PROB30
TEMPO 1906/1913 31020G30KT 4000 BLDU
BECMG 1919/1920 25008KT
BECMG 2002/2004 31013KT

Example: see airport list